createdAt,value
2019-05-29T00:02:00.003Z,1.50
2019-05-29T00:04:28.255Z,1.27
2019-05-29T00:06:56.543Z,2.07
2019-05-29T00:09:25.163Z,1.77
2019-05-29T00:11:53.423Z,1.67
2019-05-29T00:14:27.135Z,2.03
2019-05-29T00:16:52.027Z,1.47
2019-05-29T00:19:20.304Z,1.53
2019-05-29T00:21:48.590Z,1.67
2019-05-29T00:24:16.843Z,1.60
2019-05-29T00:26:45.118Z,1.70
2019-05-29T00:29:13.796Z,1.53
2019-05-29T00:31:42.239Z,1.57
2019-05-29T00:34:11.049Z,1.60
2019-05-29T00:36:39.438Z,1.90
2019-05-29T00:39:08.660Z,1.53
2019-05-29T00:41:37.084Z,1.60
2019-05-29T00:44:05.339Z,1.70
2019-05-29T00:46:33.599Z,1.77
2019-05-29T00:49:02.174Z,1.37
2019-05-29T00:51:30.482Z,1.60
2019-05-29T00:53:58.837Z,1.40
2019-05-29T00:56:27.105Z,1.60
2019-05-29T00:58:55.379Z,1.63
2019-05-29T01:01:23.647Z,1.63
2019-05-29T01:03:52.174Z,1.40
2019-05-29T01:06:20.446Z,2.07
2019-05-29T01:08:48.886Z,1.60
2019-05-29T01:11:17.169Z,1.30
2019-05-29T01:13:45.485Z,1.63
2019-05-29T01:16:13.743Z,1.37
2019-05-29T01:18:42.016Z,1.33
2019-05-29T01:21:11.720Z,1.40
2019-05-29T01:23:40.374Z,1.27
2019-05-29T01:26:08.651Z,1.70
2019-05-29T01:28:36.984Z,1.20
2019-05-29T01:31:05.307Z,2.00
2019-05-29T01:33:33.576Z,1.73
2019-05-29T01:36:01.831Z,1.63
2019-05-29T01:38:30.119Z,1.60
2019-05-29T01:40:58.378Z,1.40
2019-05-29T01:43:27.658Z,1.87
2019-05-29T01:45:56.090Z,2.23
2019-05-29T01:48:24.386Z,1.80
2019-05-29T01:50:52.634Z,1.70
2019-05-29T01:53:21.753Z,1.53
2019-05-29T01:55:50.518Z,1.20
2019-05-29T01:58:20.328Z,2.13
2019-05-29T02:00:48.758Z,1.70
2019-05-29T02:03:17.762Z,1.80
2019-05-29T02:05:46.178Z,1.63
2019-05-29T02:08:14.440Z,1.40
2019-05-29T02:10:42.694Z,1.50
2019-05-29T02:13:10.967Z,1.60
2019-05-29T02:15:39.249Z,1.93
2019-05-29T02:18:07.515Z,1.40
2019-05-29T02:20:36.342Z,1.50
2019-05-29T02:23:04.618Z,1.73
2019-05-29T02:25:32.867Z,1.63
2019-05-29T02:28:01.132Z,1.27
2019-05-29T02:30:30.778Z,1.63
2019-05-29T02:32:59.383Z,1.80
2019-05-29T02:35:29.618Z,1.97
2019-05-29T02:37:57.650Z,1.87
2019-05-29T02:40:28.056Z,1.37
2019-05-29T02:42:56.651Z,1.60
2019-05-29T02:45:49.295Z,1.80
2019-05-29T02:47:55.507Z,1.30
2019-05-29T02:50:24.085Z,1.63
2019-05-29T02:52:52.430Z,1.40
2019-05-29T02:55:21.200Z,2.20
2019-05-29T02:57:51.012Z,1.40
2019-05-29T03:00:23.414Z,1.47
2019-05-29T03:02:51.792Z,2.07
2019-05-29T03:05:21.713Z,1.40
2019-05-29T03:07:50.040Z,1.43
2019-05-29T03:10:18.306Z,1.60
2019-05-29T03:12:46.563Z,1.47
2019-05-29T03:15:14.838Z,1.60
2019-05-29T03:17:43.099Z,1.50
2019-05-29T03:20:11.435Z,1.77
2019-05-29T03:22:39.707Z,1.73
2019-05-29T03:25:08.001Z,1.53
2019-05-29T03:27:38.057Z,1.23
2019-05-29T03:30:06.805Z,1.77
2019-05-29T03:32:45.574Z,1.40
2019-05-29T03:35:06.791Z,1.80
2019-05-29T03:37:35.140Z,1.50
2019-05-29T03:40:05.643Z,1.40
2019-05-29T03:42:34.478Z,1.30
2019-05-29T03:45:02.854Z,1.70
2019-05-29T03:47:33.017Z,1.50
2019-05-29T03:50:01.103Z,1.30
2019-05-29T03:52:30.253Z,1.43
2019-05-29T03:54:58.703Z,1.57
2019-05-29T03:57:27.708Z,1.30
2019-05-29T03:59:56.624Z,1.70
2019-05-29T04:02:26.643Z,1.50
2019-05-29T04:04:55.051Z,1.30
2019-05-29T04:07:23.299Z,1.50
2019-05-29T04:09:51.575Z,1.30
2019-05-29T04:12:19.838Z,1.60
2019-05-29T04:14:48.468Z,1.47
2019-05-29T04:17:16.819Z,1.30
2019-05-29T04:19:45.130Z,1.37
2019-05-29T04:22:13.402Z,1.50
2019-05-29T04:24:41.659Z,1.67
2019-05-29T04:27:12.628Z,1.47
2019-05-29T04:29:41.950Z,1.73
2019-05-29T04:32:10.212Z,1.60
2019-05-29T04:34:39.968Z,1.50
2019-05-29T04:37:08.390Z,1.50
2019-05-29T04:39:37.012Z,1.53
2019-05-29T04:42:05.912Z,1.20
2019-05-29T04:44:36.243Z,1.53
2019-05-29T04:47:11.117Z,1.50
2019-05-29T04:49:35.754Z,1.30
2019-05-29T04:52:04.151Z,1.20
2019-05-29T04:54:33.385Z,1.27
2019-05-29T04:57:01.750Z,1.00
2019-05-29T04:59:30.855Z,1.40
2019-05-29T05:01:59.266Z,1.73
2019-05-29T05:04:27.517Z,1.00
2019-05-29T05:06:55.804Z,1.17
2019-05-29T05:09:24.050Z,0.80
2019-05-29T05:11:52.495Z,1.20
2019-05-29T05:14:20.766Z,1.53
2019-05-29T05:16:49.031Z,1.30
2019-05-29T05:19:17.287Z,1.60
2019-05-29T05:21:45.555Z,1.17
2019-05-29T05:24:13.819Z,1.73
2019-05-29T05:26:42.093Z,1.57
2019-05-29T05:29:10.365Z,1.10
2019-05-29T05:31:38.695Z,1.63
2019-05-29T05:34:06.976Z,1.80
2019-05-29T05:36:35.238Z,2.17
2019-05-29T05:39:04.963Z,1.50
2019-05-29T05:41:33.239Z,1.30
2019-05-29T05:44:01.493Z,1.53
2019-05-29T05:46:30.865Z,1.53
2019-05-29T05:48:59.411Z,1.53
2019-05-29T05:51:27.957Z,1.40
2019-05-29T05:53:56.275Z,1.67
2019-05-29T05:56:24.527Z,1.43
2019-05-29T05:58:52.806Z,1.50
2019-05-29T06:01:21.087Z,1.63
2019-05-29T06:03:49.355Z,1.50
2019-05-29T06:06:17.618Z,1.83
2019-05-29T06:08:45.979Z,2.23
2019-05-29T06:11:14.230Z,1.80
2019-05-29T06:13:42.885Z,1.90
2019-05-29T06:16:11.255Z,1.90
2019-05-29T06:18:40.576Z,1.67
2019-05-29T06:21:08.959Z,2.23
2019-05-29T06:23:37.478Z,1.97
2019-05-29T06:26:05.743Z,1.70
2019-05-29T06:28:35.030Z,2.00
2019-05-29T06:31:03.411Z,1.83
2019-05-29T06:33:31.715Z,1.50
2019-05-29T06:35:59.997Z,1.63
2019-05-29T06:38:28.323Z,2.00
2019-05-29T06:40:56.608Z,2.10
2019-05-29T06:43:25.615Z,2.00
2019-05-29T06:45:54.638Z,1.97
2019-05-29T06:48:42.355Z,1.80
2019-05-29T06:50:58.714Z,2.30
2019-05-29T06:53:27.000Z,2.63
2019-05-29T06:55:56.657Z,2.30
2019-05-29T06:58:25.355Z,1.83
2019-05-29T07:00:53.623Z,2.70
2019-05-29T07:03:21.891Z,2.20
2019-05-29T07:05:52.523Z,1.80
2019-05-29T07:08:35.222Z,1.97
2019-05-29T07:10:50.180Z,1.80
2019-05-29T07:13:19.707Z,2.03
2019-05-29T07:15:47.971Z,2.37
2019-05-29T07:18:16.261Z,2.40
2019-05-29T07:20:44.895Z,2.43
2019-05-29T07:23:13.294Z,2.87
2019-05-29T07:25:42.883Z,2.87
2019-05-29T07:28:11.348Z,2.70
2019-05-29T07:30:42.738Z,1.97
2019-05-29T07:33:09.614Z,1.80
2019-05-29T07:35:37.890Z,2.63
2019-05-29T07:38:06.174Z,2.13
2019-05-29T07:40:35.972Z,2.30
2019-05-29T07:43:04.438Z,2.23
2019-05-29T07:45:32.715Z,2.00
2019-05-29T07:48:00.992Z,2.20
2019-05-29T07:50:29.283Z,2.53
2019-05-29T07:52:59.295Z,2.27
2019-05-29T07:55:27.701Z,2.37
2019-05-29T07:57:56.015Z,2.87
2019-05-29T08:00:34.729Z,2.60
2019-05-29T08:02:54.298Z,2.10
2019-05-29T08:05:22.562Z,2.10
2019-05-29T08:07:50.844Z,2.20
2019-05-29T08:10:19.531Z,2.00
2019-05-29T08:12:53.182Z,2.80
2019-05-29T08:15:17.887Z,2.27
2019-05-29T08:17:46.294Z,1.87
2019-05-29T08:20:15.088Z,2.23
2019-05-29T08:22:44.404Z,2.47
2019-05-29T08:25:13.091Z,2.00
2019-05-29T08:27:42.508Z,1.80
2019-05-29T08:30:10.991Z,2.20
2019-05-29T08:32:40.681Z,2.20
2019-05-29T08:35:09.097Z,2.13
2019-05-29T08:37:37.375Z,1.70
2019-05-29T08:40:08.866Z,1.60
2019-05-29T08:42:37.127Z,2.00
2019-05-29T08:45:06.843Z,2.00
2019-05-29T08:47:35.104Z,1.90
2019-05-29T08:50:17.211Z,1.83
2019-05-29T08:52:34.147Z,1.87
2019-05-29T08:55:02.408Z,1.83
2019-05-29T08:57:30.701Z,1.90
2019-05-29T08:59:58.985Z,2.00
2019-05-29T09:02:27.249Z,1.87
2019-05-29T09:04:55.522Z,1.97
2019-05-29T09:07:23.793Z,1.57
2019-05-29T09:09:53.239Z,2.13
2019-05-29T09:12:21.723Z,2.10
2019-05-29T09:14:49.979Z,1.30
2019-05-29T09:17:18.527Z,1.60
2019-05-29T09:19:46.975Z,1.97
2019-05-29T09:22:16.444Z,1.87
2019-05-29T09:24:45.191Z,1.70
2019-05-29T09:27:14.558Z,1.63
2019-05-29T09:29:43.645Z,1.93
2019-05-29T09:32:13.473Z,2.03
2019-05-29T09:34:42.255Z,1.50
2019-05-29T09:37:10.531Z,1.70
2019-05-29T09:39:38.784Z,1.70
2019-05-29T09:42:07.047Z,1.70
2019-05-29T09:44:39.235Z,1.87
2019-05-29T09:47:05.313Z,1.60
2019-05-29T09:49:33.607Z,1.63
2019-05-29T09:52:02.078Z,1.50
2019-05-29T09:54:30.507Z,1.60
2019-05-29T09:56:59.640Z,1.50
2019-05-29T09:59:28.836Z,1.50
2019-05-29T10:01:59.960Z,1.87
2019-05-29T10:04:28.374Z,1.50
2019-05-29T10:06:57.579Z,1.33
2019-05-29T10:09:26.328Z,1.30
2019-05-29T10:11:58.515Z,1.00
2019-05-29T10:14:24.752Z,1.30
2019-05-29T10:16:56.102Z,1.33
2019-05-29T10:19:23.020Z,1.50
2019-05-29T10:21:51.283Z,1.50
2019-05-29T10:24:19.566Z,1.33
2019-05-29T10:26:47.840Z,1.60
2019-05-29T10:29:16.245Z,1.40
2019-05-29T10:31:46.781Z,2.13
2019-05-29T10:34:14.559Z,1.40
2019-05-29T10:36:46.872Z,1.50
2019-05-29T10:39:13.146Z,1.80
2019-05-29T10:41:42.601Z,1.43
2019-05-29T10:44:12.836Z,1.37
2019-05-29T10:46:41.114Z,1.40
2019-05-29T10:49:09.379Z,1.80
2019-05-29T10:51:37.646Z,1.70
2019-05-29T10:54:05.940Z,1.37
2019-05-29T10:56:34.201Z,1.33
2019-05-29T10:59:02.459Z,1.50
2019-05-29T11:01:30.743Z,1.30
2019-05-29T11:03:59.121Z,1.80
2019-05-29T11:06:27.466Z,1.50
2019-05-29T11:08:56.272Z,2.07
2019-05-29T11:11:24.786Z,1.37
2019-05-29T11:13:53.045Z,1.77
2019-05-29T11:16:21.315Z,2.57
2019-05-29T11:18:49.576Z,2.27
2019-05-29T11:21:17.874Z,1.67
2019-05-29T11:23:46.191Z,2.20
2019-05-29T11:26:14.468Z,5.43
2019-05-29T11:28:42.747Z,14.00
2019-05-29T11:31:11.034Z,23.37
2019-05-29T11:33:39.363Z,18.43
2019-05-29T11:36:12.815Z,6.77
2019-05-29T11:38:37.616Z,6.50
2019-05-29T11:41:25.021Z,6.10
2019-05-29T11:43:37.490Z,6.03
2019-05-29T11:46:05.776Z,5.33
2019-05-29T11:48:34.036Z,5.13
2019-05-29T11:51:02.476Z,5.27
2019-05-29T11:53:30.873Z,4.67
2019-05-29T11:55:59.844Z,4.87
2019-05-29T11:58:31.499Z,3.83
2019-05-29T12:00:59.221Z,4.57
2019-05-29T12:03:27.623Z,4.47
2019-05-29T12:05:56.293Z,4.13
2019-05-29T12:08:25.877Z,3.50
2019-05-29T12:10:55.316Z,3.80
2019-05-29T12:13:23.724Z,3.17
2019-05-29T12:15:52.049Z,3.30
2019-05-29T12:18:24.358Z,2.40
2019-05-29T12:20:51.955Z,3.27
2019-05-29T12:23:26.512Z,3.57
2019-05-29T12:26:11.532Z,3.07
2019-05-29T12:28:20.907Z,3.00
2019-05-29T12:30:49.210Z,3.17
2019-05-29T12:33:17.534Z,3.30
2019-05-29T12:35:45.786Z,2.70
2019-05-29T12:38:14.082Z,2.77
2019-05-29T12:40:42.834Z,2.50
2019-05-29T12:43:26.027Z,2.73
2019-05-29T12:45:41.213Z,3.00
2019-05-29T12:48:13.299Z,3.00
2019-05-29T12:50:39.539Z,2.90
2019-05-29T12:53:08.119Z,2.23
2019-05-29T12:55:36.379Z,2.27
2019-05-29T12:58:04.716Z,2.20
2019-05-29T13:00:32.975Z,2.37
2019-05-29T13:03:02.928Z,2.13
2019-05-29T13:05:31.271Z,2.40
2019-05-29T13:08:00.822Z,2.50
2019-05-29T13:10:30.913Z,2.57
2019-05-29T13:13:04.807Z,1.70
2019-05-29T13:15:29.309Z,2.27
2019-05-29T13:18:02.459Z,1.90
2019-05-29T13:20:27.652Z,3.33
2019-05-29T13:22:57.461Z,2.77
2019-05-29T13:25:26.079Z,2.93
2019-05-29T13:27:57.313Z,2.20
2019-05-29T13:30:24.374Z,2.53
2019-05-29T13:32:52.721Z,3.50
2019-05-29T13:35:22.467Z,2.40
2019-05-29T13:37:50.946Z,3.10
2019-05-29T13:40:19.276Z,2.07
2019-05-29T13:42:47.615Z,2.73
2019-05-29T13:45:18.401Z,2.80
2019-05-29T13:47:46.879Z,2.93
2019-05-29T13:50:15.206Z,2.40
2019-05-29T13:52:43.486Z,2.70
2019-05-29T13:55:11.839Z,2.33
2019-05-29T13:57:40.376Z,2.03
2019-05-29T14:00:30.376Z,2.50
2019-05-29T14:02:43.254Z,2.00
2019-05-29T14:05:13.059Z,2.67
2019-05-29T14:07:41.679Z,2.33
2019-05-29T14:10:10.608Z,2.00
2019-05-29T14:12:40.396Z,2.17
2019-05-29T14:15:12.632Z,2.37
2019-05-29T14:17:41.667Z,2.00
2019-05-29T14:20:09.951Z,2.83
2019-05-29T14:22:38.387Z,1.73
2019-05-29T14:25:07.498Z,1.90
2019-05-29T14:27:36.000Z,2.10
2019-05-29T14:30:08.446Z,2.07
2019-05-29T14:32:36.465Z,2.03
2019-05-29T14:35:08.993Z,2.00
2019-05-29T14:37:37.367Z,1.83
2019-05-29T14:40:05.923Z,2.13
2019-05-29T14:42:34.331Z,1.73
2019-05-29T14:45:03.983Z,2.33
2019-05-29T14:47:32.707Z,1.83
2019-05-29T14:50:02.400Z,2.00
2019-05-29T14:52:30.811Z,2.00
2019-05-29T14:54:59.084Z,1.70
2019-05-29T14:57:27.446Z,1.73
2019-05-29T14:59:57.779Z,1.93
2019-05-29T15:02:26.592Z,2.10
2019-05-29T15:05:14.982Z,1.67
2019-05-29T15:07:43.501Z,1.80
2019-05-29T15:10:22.666Z,1.57
2019-05-29T15:12:42.438Z,1.80
2019-05-29T15:15:16.358Z,2.10
2019-05-29T15:17:44.123Z,1.70
2019-05-29T15:20:14.456Z,1.70
2019-05-29T15:22:42.875Z,1.77
2019-05-29T15:25:19.979Z,1.70
2019-05-29T15:27:42.343Z,1.80
2019-05-29T15:30:12.742Z,1.70
2019-05-29T15:32:41.169Z,1.50
2019-05-29T15:35:13.813Z,1.47
2019-05-29T15:37:39.660Z,1.90
2019-05-29T15:40:08.783Z,1.77
2019-05-29T15:42:37.362Z,1.60
2019-05-29T15:45:09.860Z,1.63
2019-05-29T15:47:38.295Z,1.60
2019-05-29T15:50:09.005Z,1.77
2019-05-29T15:52:37.559Z,1.60
2019-05-29T15:55:21.170Z,1.40
2019-05-29T15:57:37.120Z,1.23
2019-05-29T16:00:07.081Z,1.70
2019-05-29T16:02:35.392Z,1.60
2019-05-29T16:05:04.704Z,1.60
2019-05-29T16:07:33.036Z,1.70
2019-05-29T16:10:01.287Z,1.57
2019-05-29T16:12:31.033Z,1.40
2019-05-29T16:14:59.615Z,1.40
2019-05-29T16:17:27.915Z,1.07
2019-05-29T16:19:56.220Z,1.47
2019-05-29T16:22:24.491Z,1.50
2019-05-29T16:24:52.738Z,1.37
2019-05-29T16:27:22.293Z,1.70
2019-05-29T16:29:50.738Z,1.70
2019-05-29T16:32:20.323Z,1.60
2019-05-29T16:34:48.609Z,1.53
2019-05-29T16:37:17.375Z,1.83
2019-05-29T16:39:45.919Z,1.57
2019-05-29T16:42:14.213Z,1.40
2019-05-29T16:44:42.978Z,1.27
2019-05-29T16:47:12.458Z,1.80
2019-05-29T16:49:40.886Z,1.73
2019-05-29T16:52:09.183Z,1.43
2019-05-29T16:54:37.435Z,1.37
2019-05-29T16:57:05.874Z,1.60
2019-05-29T16:59:34.157Z,1.50
2019-05-29T17:02:02.411Z,1.43
2019-05-29T17:04:30.675Z,1.90
2019-05-29T17:06:58.943Z,1.47
2019-05-29T17:09:27.223Z,1.30
2019-05-29T17:11:55.482Z,1.80
2019-05-29T17:14:25.036Z,1.43
2019-05-29T17:16:53.486Z,1.30
2019-05-29T17:19:23.049Z,1.70
2019-05-29T17:21:51.623Z,1.20
2019-05-29T17:24:20.933Z,1.20
2019-05-29T17:26:49.333Z,1.20
2019-05-29T17:29:18.896Z,1.40
2019-05-29T17:31:47.219Z,1.50
2019-05-29T17:34:16.807Z,1.70
2019-05-29T17:36:45.254Z,1.80
2019-05-29T17:39:15.162Z,1.90
2019-05-29T17:41:43.606Z,1.80
2019-05-29T17:44:11.886Z,1.63
2019-05-29T17:46:40.135Z,1.83
2019-05-29T17:49:09.788Z,2.47
2019-05-29T17:51:38.490Z,1.83
2019-05-29T17:54:06.775Z,1.50
2019-05-29T17:56:36.987Z,1.70
2019-05-29T17:59:05.043Z,1.60
2019-05-29T18:01:33.380Z,1.80
2019-05-29T18:04:01.655Z,1.60
2019-05-29T18:06:30.019Z,1.67
2019-05-29T18:08:58.438Z,2.20
2019-05-29T18:11:27.664Z,1.60
2019-05-29T18:13:56.071Z,1.50
2019-05-29T18:16:25.556Z,1.70
2019-05-29T18:18:53.970Z,1.40
2019-05-29T18:21:23.519Z,1.73
2019-05-29T18:23:53.523Z,1.80
2019-05-29T18:26:22.164Z,1.50
2019-05-29T18:28:50.432Z,1.63
2019-05-29T18:31:18.685Z,1.50
2019-05-29T18:33:47.618Z,1.47
2019-05-29T18:36:15.975Z,1.97
2019-05-29T18:38:44.247Z,2.17
2019-05-29T18:41:12.530Z,1.83
2019-05-29T18:43:40.824Z,2.73
2019-05-29T18:46:09.078Z,2.30
2019-05-29T18:48:37.374Z,2.20
2019-05-29T18:51:05.744Z,1.93
2019-05-29T18:53:34.013Z,2.63
2019-05-29T18:56:02.283Z,2.60
2019-05-29T18:58:30.777Z,2.50
2019-05-29T19:00:59.617Z,2.53
2019-05-29T19:03:27.874Z,2.60
2019-05-29T19:05:56.134Z,2.23
2019-05-29T19:08:25.659Z,2.20
2019-05-29T19:10:55.402Z,2.53
2019-05-29T19:13:23.805Z,2.63
2019-05-29T19:15:52.210Z,2.90
2019-05-29T19:18:21.904Z,2.33
2019-05-29T19:20:50.235Z,2.30
2019-05-29T19:23:18.495Z,2.30
2019-05-29T19:25:46.767Z,2.27
2019-05-29T19:28:15.091Z,3.00
2019-05-29T19:30:43.394Z,2.30
2019-05-29T19:33:12.146Z,2.20
2019-05-29T19:35:40.446Z,2.17
2019-05-29T19:38:09.074Z,2.20
2019-05-29T19:40:38.981Z,2.27
2019-05-29T19:43:07.254Z,1.93
2019-05-29T19:45:35.531Z,2.10
2019-05-29T19:48:03.848Z,2.00
2019-05-29T19:50:32.899Z,2.30
2019-05-29T19:53:01.342Z,2.03
2019-05-29T19:55:32.909Z,1.87
2019-05-29T19:57:59.615Z,2.43
2019-05-29T20:00:28.124Z,1.90
2019-05-29T20:02:56.456Z,2.53
2019-05-29T20:05:24.815Z,1.70
2019-05-29T20:07:53.106Z,1.90
2019-05-29T20:10:21.379Z,2.30
2019-05-29T20:12:49.658Z,2.20
2019-05-29T20:15:17.929Z,1.97
2019-05-29T20:17:46.226Z,1.73
2019-05-29T20:20:14.503Z,2.30
2019-05-29T20:22:42.789Z,1.80
2019-05-29T20:25:13.612Z,2.30
2019-05-29T20:27:42.496Z,2.20
2019-05-29T20:30:18.567Z,2.07
2019-05-29T20:32:47.200Z,2.30
2019-05-29T20:35:16.317Z,2.00
2019-05-29T20:37:45.629Z,2.10
2019-05-29T20:40:13.895Z,1.60
2019-05-29T20:42:42.548Z,2.10
2019-05-29T20:45:10.894Z,2.00
2019-05-29T20:47:40.087Z,1.83
2019-05-29T20:50:08.757Z,1.73
2019-05-29T20:52:37.411Z,2.60
2019-05-29T20:55:05.851Z,2.10
2019-05-29T20:57:34.123Z,2.37
2019-05-29T21:00:02.379Z,2.07
2019-05-29T21:02:31.932Z,2.03
2019-05-29T21:05:00.413Z,2.17
2019-05-29T21:07:28.703Z,1.97
2019-05-29T21:09:57.006Z,1.50
2019-05-29T21:12:25.294Z,2.07
2019-05-29T21:14:55.264Z,2.20
2019-05-29T21:17:23.592Z,1.67
2019-05-29T21:19:51.936Z,1.63
2019-05-29T21:22:20.199Z,1.80
2019-05-29T21:24:59.583Z,1.93
2019-05-29T21:27:18.487Z,1.73
2019-05-29T21:29:46.745Z,2.03
2019-05-29T21:32:15.329Z,2.33
2019-05-29T21:34:43.972Z,1.77
2019-05-29T21:37:12.335Z,2.13
2019-05-29T21:39:40.591Z,1.83
2019-05-29T21:42:08.847Z,1.60
2019-05-29T21:44:37.149Z,1.50
2019-05-29T21:47:05.470Z,1.77
2019-05-29T21:49:33.759Z,1.87
2019-05-29T21:52:02.014Z,1.70
2019-05-29T21:54:30.278Z,1.60
2019-05-29T21:56:58.535Z,1.40
2019-05-29T21:59:26.807Z,1.77
2019-05-29T22:01:55.063Z,1.63
2019-05-29T22:04:23.350Z,1.97
2019-05-29T22:06:51.611Z,1.77
2019-05-29T22:09:19.883Z,1.60
2019-05-29T22:11:48.141Z,1.73
2019-05-29T22:14:16.414Z,1.50
2019-05-29T22:16:44.673Z,2.07
2019-05-29T22:19:12.938Z,2.63
2019-05-29T22:21:41.199Z,2.30
2019-05-29T22:24:09.468Z,1.80
2019-05-29T22:26:37.754Z,2.07
2019-05-29T22:29:18.040Z,1.60
2019-05-29T22:31:36.055Z,1.70
2019-05-29T22:34:04.328Z,1.33
2019-05-29T22:36:32.604Z,1.20
2019-05-29T22:39:01.789Z,1.80
2019-05-29T22:41:30.316Z,1.83
2019-05-29T22:43:59.724Z,1.50
2019-05-29T22:46:28.026Z,1.63
2019-05-29T22:48:56.325Z,1.60
2019-05-29T22:51:24.654Z,1.30
2019-05-29T22:53:53.960Z,1.47
2019-05-29T22:56:22.374Z,1.50
2019-05-29T22:58:51.895Z,1.70
2019-05-29T23:01:20.313Z,1.40
2019-05-29T23:03:48.589Z,1.60
2019-05-29T23:06:16.907Z,1.57
2019-05-29T23:08:45.167Z,1.67
2019-05-29T23:11:23.387Z,1.80
2019-05-29T23:13:52.251Z,1.63
2019-05-29T23:16:20.718Z,1.47
2019-05-29T23:18:49.048Z,1.47
2019-05-29T23:21:17.322Z,1.37
2019-05-29T23:23:45.579Z,1.70
2019-05-29T23:26:14.116Z,2.03
2019-05-29T23:28:42.495Z,1.30
2019-05-29T23:31:10.836Z,1.70
2019-05-29T23:33:39.492Z,1.67
2019-05-29T23:36:08.164Z,2.00
2019-05-29T23:38:36.442Z,1.30
2019-05-29T23:41:05.047Z,1.60
2019-05-29T23:43:33.320Z,1.70
2019-05-29T23:46:02.379Z,1.43
2019-05-29T23:48:31.083Z,1.30
2019-05-29T23:50:59.795Z,1.53
2019-05-29T23:53:28.073Z,1.87
2019-05-29T23:55:57.586Z,1.50
2019-05-29T23:58:26.555Z,1.20
